KAOO/AOO METAR and TAF weather

Enter ICAO airport designator
Station Type Date Time Source
KAOO METAR 2022/01/23 11:53 UTC NOAA

KAOO 231153Z AUTO 22009KT 10SM CLR M05/M11 A2989 RMK AO2 SLP145 T10501111 11039 21056 58019


Station Type Date Time Source
KAOO Decoded METAR 2022/01/23 11:53 UTC NOAA

ALTOONA-BLAIR COUNTY AIRPORT, PA, United States (KAOO) 40-18N 78-19W 455M
Jan 23, 2022 - 06:53 AM EST / 2022.01.23 1153 UTC
Wind: from the SW (220 degrees) at 10 MPH (9 KT):0
Visibility: 10 mile(s):0
Sky conditions: clear
Temperature: 23.0 F (-5.0 C)
Windchill: 12 F (-11 C):1
Dew Point: 12.0 F (-11.1 C)
Relative Humidity: 62%
Pressure (altimeter): 29.89 in. Hg (1012 hPa)
Pressure tendency: 0.06 inches (1.9 hPa) lower than three hours ago
ob: KAOO 231153Z AUTO 22009KT 10SM CLR M05/M11 A2989 RMK AO2 SLP145 T10501111 11039 21056 58019
cycle: 12

Station Type Date Time Source
KAOO TAF 2022/01/23 12:22 UTC NOAA

TAF KAOO 231120Z 2312/2412 25006KT P6SM OVC035
FM231800 25010KT 2SM -SN BR OVC025
FM240200 00000KT P6SM OVC035
FM240900 32004KT P6SM OVC050

Example: see airport list